createdAt,value
2023-05-12T00:00:20.334Z,72.69
2023-05-12T00:02:47.511Z,72.35
2023-05-12T00:05:14.650Z,71.96
2023-05-12T00:07:41.580Z,72.36
2023-05-12T00:10:08.815Z,71.99
2023-05-12T00:12:35.835Z,71.45
2023-05-12T00:15:03.575Z,71.26
2023-05-12T00:17:34.221Z,70.76
2023-05-12T00:20:01.386Z,70.41
2023-05-12T00:22:32.750Z,70.29
2023-05-12T00:24:59.700Z,70.22
2023-05-12T00:27:26.716Z,70.43
2023-05-12T00:29:53.678Z,70.23
2023-05-12T00:32:20.718Z,70.24
2023-05-12T00:34:47.856Z,69.72
2023-05-12T00:37:14.829Z,69.72
2023-05-12T00:39:41.742Z,70.03
2023-05-12T00:42:08.869Z,70.07
2023-05-12T00:44:36.701Z,69.74
2023-05-12T00:47:04.958Z,70.14
2023-05-12T00:49:32.077Z,70.50
2023-05-12T00:51:59.516Z,70.42
2023-05-12T00:54:27.365Z,70.24
2023-05-12T00:56:55.215Z,70.15
2023-05-12T00:59:23.261Z,69.35
2023-05-12T01:01:50.454Z,69.29
2023-05-12T01:04:17.971Z,69.69
2023-05-12T01:06:54.129Z,70.29
2023-05-12T01:09:21.623Z,69.21
2023-05-12T01:11:49.037Z,69.99
2023-05-12T01:14:17.276Z,70.13
2023-05-12T01:16:52.682Z,70.66
2023-05-12T01:19:42.785Z,70.15
2023-05-12T01:22:12.435Z,71.06
2023-05-12T01:25:04.610Z,70.08
2023-05-12T01:27:33.940Z,69.86
2023-05-12T01:30:04.033Z,70.29
2023-05-12T01:32:36.433Z,70.72
2023-05-12T01:35:04.490Z,71.30
2023-05-12T01:37:33.444Z,71.75
2023-05-12T01:40:03.713Z,72.37
2023-05-12T01:42:32.132Z,72.03
2023-05-12T01:44:59.317Z,71.87
2023-05-12T01:47:27.457Z,72.37
2023-05-12T01:50:06.019Z,72.06
2023-05-12T01:52:33.319Z,72.00
2023-05-12T01:55:00.579Z,71.54
2023-05-12T01:57:32.823Z,71.56
2023-05-12T02:00:01.284Z,72.63
2023-05-12T02:02:34.453Z,74.94
2023-05-12T02:05:01.839Z,75.81
2023-05-12T02:07:30.559Z,75.83
2023-05-12T02:09:58.566Z,76.26
2023-05-12T02:12:26.358Z,76.81
2023-05-12T02:14:53.488Z,76.78
2023-05-12T02:17:20.928Z,76.44
2023-05-12T02:19:50.165Z,75.94
2023-05-12T02:22:17.138Z,76.05
2023-05-12T02:24:44.049Z,76.50
2023-05-12T02:27:11.007Z,76.84
2023-05-12T02:29:38.145Z,75.72
2023-05-12T02:32:05.981Z,75.13
2023-05-12T02:34:33.156Z,74.91
2023-05-12T02:37:00.144Z,73.41
2023-05-12T02:39:27.418Z,74.45
2023-05-12T02:41:54.359Z,75.90
2023-05-12T02:44:22.482Z,76.60
2023-05-12T02:46:50.774Z,76.77
2023-05-12T02:49:18.548Z,75.82
2023-05-12T02:51:48.403Z,77.19
2023-05-12T02:54:15.505Z,76.46
2023-05-12T02:56:42.547Z,77.14
2023-05-12T02:59:09.528Z,75.83
2023-05-12T03:01:36.495Z,75.35
2023-05-12T03:04:03.957Z,75.29
2023-05-12T03:06:32.388Z,75.17
2023-05-12T03:09:00.236Z,77.61
2023-05-12T03:11:27.442Z,76.41
2023-05-12T03:13:54.394Z,77.21
2023-05-12T03:16:21.491Z,77.90
2023-05-12T03:18:49.227Z,77.50
2023-05-12T03:21:16.281Z,77.15
2023-05-12T03:23:43.149Z,76.95
2023-05-12T03:26:10.039Z,77.93
2023-05-12T03:28:37.030Z,78.86
2023-05-12T03:31:04.222Z,78.93
2023-05-12T03:33:31.326Z,78.20
2023-05-12T03:35:58.669Z,78.59
2023-05-12T03:38:26.597Z,77.61
2023-05-12T03:41:06.344Z,77.31
2023-05-12T03:43:35.857Z,77.23
2023-05-12T03:46:03.953Z,77.64
2023-05-12T03:48:31.263Z,76.88
2023-05-12T03:50:59.088Z,76.07
2023-05-12T03:53:26.211Z,76.59
2023-05-12T03:55:53.433Z,77.95
2023-05-12T03:58:20.500Z,78.37
2023-05-12T04:00:50.291Z,77.64
2023-05-12T04:03:17.940Z,77.65
2023-05-12T04:05:45.131Z,77.94
2023-05-12T04:08:12.797Z,77.99
2023-05-12T04:10:40.804Z,78.03
2023-05-12T04:13:09.000Z,79.13
2023-05-12T04:15:36.660Z,79.39
2023-05-12T04:18:04.119Z,79.95
2023-05-12T04:20:31.085Z,78.58
2023-05-12T04:22:58.195Z,78.48
2023-05-12T04:25:25.176Z,78.32
2023-05-12T04:27:52.105Z,78.27
2023-05-12T04:30:19.701Z,78.27
2023-05-12T04:32:46.928Z,78.02
2023-05-12T04:35:13.906Z,78.05
2023-05-12T04:37:41.602Z,78.61
2023-05-12T04:40:09.070Z,78.63
2023-05-12T04:42:36.541Z,77.91
2023-05-12T04:45:04.208Z,77.91
2023-05-12T04:47:33.306Z,78.06
2023-05-12T04:50:00.389Z,78.49
2023-05-12T04:52:27.309Z,79.04
2023-05-12T04:54:54.319Z,78.97
2023-05-12T04:57:22.428Z,78.69
2023-05-12T04:59:50.082Z,78.89
2023-05-12T05:02:17.317Z,79.02
2023-05-12T05:04:45.080Z,78.25
2023-05-12T05:07:12.107Z,77.84
2023-05-12T05:09:39.234Z,77.05
2023-05-12T05:12:07.245Z,76.47
2023-05-12T05:14:34.640Z,75.92
2023-05-12T05:17:02.367Z,76.27
2023-05-12T05:19:44.550Z,75.84
2023-05-12T05:22:17.128Z,76.34
2023-05-12T05:24:45.219Z,76.25
2023-05-12T05:27:12.734Z,75.71
2023-05-12T05:29:39.734Z,75.74
2023-05-12T05:32:08.429Z,75.90
2023-05-12T05:34:35.969Z,74.29
2023-05-12T05:37:03.572Z,73.83
2023-05-12T05:39:31.052Z,72.87
2023-05-12T05:41:58.331Z,72.58
2023-05-12T05:44:25.788Z,72.12
2023-05-12T05:46:53.671Z,70.13
2023-05-12T05:49:21.838Z,68.83
2023-05-12T05:51:48.856Z,69.52
2023-05-12T05:54:16.274Z,70.25
2023-05-12T05:56:52.798Z,69.07
2023-05-12T05:59:19.930Z,68.96
2023-05-12T06:01:47.075Z,68.88
2023-05-12T06:04:14.189Z,69.15
2023-05-12T06:06:41.324Z,67.84
2023-05-12T06:09:09.676Z,67.81
2023-05-12T06:11:36.649Z,67.39
2023-05-12T06:14:03.696Z,66.72
2023-05-12T06:16:30.757Z,66.51
2023-05-12T06:18:57.819Z,65.79
2023-05-12T06:21:25.076Z,65.81
2023-05-12T06:23:52.208Z,65.77
2023-05-12T06:26:19.121Z,62.80
2023-05-12T06:28:46.068Z,61.98
2023-05-12T06:31:13.315Z,60.31
2023-05-12T06:33:40.303Z,58.54
2023-05-12T06:36:07.832Z,56.20
2023-05-12T06:38:34.747Z,56.10
2023-05-12T06:41:01.669Z,57.04
2023-05-12T06:43:28.732Z,54.99
2023-05-12T06:45:57.005Z,55.01
2023-05-12T06:48:24.395Z,55.28
2023-05-12T06:50:51.513Z,54.75
2023-05-12T06:53:18.845Z,54.99
2023-05-12T06:55:47.165Z,54.06
2023-05-12T06:58:14.289Z,54.85
2023-05-12T07:00:41.250Z,54.03
2023-05-12T07:03:10.286Z,53.39
2023-05-12T07:05:37.724Z,54.29
2023-05-12T07:08:05.570Z,54.89
2023-05-12T07:10:33.356Z,54.99
2023-05-12T07:13:00.399Z,54.77
2023-05-12T07:15:27.496Z,55.06
2023-05-12T07:17:55.873Z,54.02
2023-05-12T07:20:23.483Z,53.89
2023-05-12T07:22:52.290Z,53.87
2023-05-12T07:25:19.697Z,54.72
2023-05-12T07:27:47.948Z,54.99
2023-05-12T07:30:15.163Z,55.33
2023-05-12T07:32:43.217Z,55.52
2023-05-12T07:35:10.676Z,55.84
2023-05-12T07:37:37.766Z,55.11
2023-05-12T07:40:05.208Z,54.10
2023-05-12T07:42:32.684Z,54.58
2023-05-12T07:44:59.818Z,55.03
2023-05-12T07:47:28.849Z,54.42
2023-05-12T07:49:55.856Z,53.53
2023-05-12T07:52:24.229Z,52.84
2023-05-12T07:54:51.246Z,52.67
2023-05-12T07:57:18.281Z,52.42
2023-05-12T07:59:45.456Z,50.92
2023-05-12T08:02:13.046Z,50.77
2023-05-12T08:04:42.100Z,50.16
2023-05-12T08:07:10.881Z,49.90
2023-05-12T08:09:37.933Z,48.77
2023-05-12T08:12:05.379Z,48.56
2023-05-12T08:14:32.250Z,48.61
2023-05-12T08:16:59.527Z,49.47
2023-05-12T08:19:26.495Z,49.08
2023-05-12T08:21:53.753Z,49.15
2023-05-12T08:24:21.928Z,48.51
2023-05-12T08:26:48.923Z,47.32
2023-05-12T08:29:16.702Z,47.28
2023-05-12T08:31:43.642Z,48.39
2023-05-12T08:34:11.396Z,49.14
2023-05-12T08:36:41.748Z,48.51
2023-05-12T08:39:11.902Z,49.20
2023-05-12T08:41:56.140Z,49.42
2023-05-12T08:44:23.794Z,49.40
2023-05-12T08:46:52.743Z,50.06
2023-05-12T08:49:22.880Z,48.58
2023-05-12T08:51:57.755Z,49.04
2023-05-12T08:54:27.972Z,47.54
2023-05-12T08:59:26.146Z,45.93
2023-05-12T09:01:55.201Z,48.52
2023-05-12T09:04:22.579Z,46.33
2023-05-12T09:06:51.704Z,45.48
2023-05-12T09:09:20.798Z,45.14
2023-05-12T09:11:50.048Z,45.46
2023-05-12T09:14:21.947Z,45.06
2023-05-12T09:16:52.465Z,44.81
2023-05-12T09:19:22.326Z,45.02
2023-05-12T09:21:49.404Z,45.91
2023-05-12T09:24:16.448Z,46.69
2023-05-12T09:26:51.787Z,45.93
2023-05-12T09:29:30.740Z,45.69
2023-05-12T09:32:03.424Z,44.92
2023-05-12T09:34:32.714Z,45.89
2023-05-12T09:37:01.482Z,46.03
2023-05-12T09:39:29.176Z,45.21
2023-05-12T09:41:56.855Z,45.57
2023-05-12T09:44:25.233Z,45.48
2023-05-12T09:46:52.968Z,46.54
2023-05-12T09:49:28.052Z,45.79
2023-05-12T09:51:58.923Z,45.67
2023-05-12T09:54:30.337Z,45.68
2023-05-12T09:56:59.773Z,45.34
2023-05-12T09:59:32.770Z,45.49
2023-05-12T10:02:01.606Z,47.52
2023-05-12T10:04:32.560Z,46.69
2023-05-12T10:07:00.341Z,47.09
2023-05-12T10:09:34.185Z,46.92
2023-05-12T10:12:04.420Z,46.77
2023-05-12T10:14:32.586Z,45.47
2023-05-12T10:16:59.962Z,45.91
2023-05-12T10:19:28.632Z,45.81
2023-05-12T10:21:57.353Z,46.38
2023-05-12T10:24:28.445Z,45.94
2023-05-12T10:26:59.846Z,45.33
2023-05-12T10:29:32.962Z,44.66
2023-05-12T10:32:03.777Z,44.45
2023-05-12T10:34:34.921Z,44.57
2023-05-12T10:37:08.417Z,44.46
2023-05-12T10:39:35.773Z,44.32
2023-05-12T10:42:11.994Z,42.43
2023-05-12T10:44:51.127Z,43.30
2023-05-12T10:47:18.487Z,42.89
2023-05-12T10:49:45.477Z,43.82
2023-05-12T10:52:13.734Z,45.33
2023-05-12T10:54:45.685Z,44.29
2023-05-12T10:57:17.951Z,43.35
2023-05-12T10:59:51.361Z,43.66
2023-05-12T11:02:21.140Z,44.99
2023-05-12T11:04:51.432Z,45.56
2023-05-12T11:07:30.591Z,45.20
2023-05-12T11:10:02.878Z,47.55
2023-05-12T11:12:38.270Z,46.69
2023-05-12T11:15:07.054Z,47.47
2023-05-12T11:17:37.952Z,49.20
2023-05-12T11:20:05.545Z,48.15
2023-05-12T11:22:33.959Z,47.08
2023-05-12T11:25:10.253Z,46.02
2023-05-12T11:27:42.433Z,45.65
2023-05-12T11:30:11.177Z,45.20
2023-05-12T11:32:38.685Z,45.27
2023-05-12T11:35:17.804Z,46.93
2023-05-12T11:37:46.664Z,48.24
2023-05-12T11:40:19.198Z,47.41
2023-05-12T11:42:52.139Z,46.08
2023-05-12T11:45:28.485Z,47.64
2023-05-12T11:48:13.850Z,47.48
2023-05-12T11:50:42.889Z,46.29
2023-05-12T11:53:17.435Z,46.69
2023-05-12T11:55:56.388Z,45.83
2023-05-12T11:58:26.863Z,44.88
2023-05-12T12:00:54.785Z,44.08
2023-05-12T12:03:21.960Z,45.19
2023-05-12T12:06:00.382Z,44.77
2023-05-12T12:08:27.732Z,44.55
2023-05-12T12:10:55.490Z,44.01
2023-05-12T12:13:24.118Z,43.98
2023-05-12T12:15:51.833Z,43.12
2023-05-12T12:18:21.749Z,43.92
2023-05-12T12:20:48.805Z,43.70
2023-05-12T12:23:16.020Z,42.60
2023-05-12T12:25:43.723Z,43.23
2023-05-12T12:28:11.051Z,43.33
2023-05-12T12:30:38.258Z,43.04
2023-05-12T12:33:05.247Z,42.14
2023-05-12T12:35:32.330Z,42.05
2023-05-12T12:37:59.353Z,41.05
2023-05-12T12:40:26.468Z,41.01
2023-05-12T12:42:53.565Z,40.95
2023-05-12T12:45:20.813Z,41.18
2023-05-12T12:47:48.134Z,40.79
2023-05-12T12:50:15.266Z,40.56
2023-05-12T12:52:42.372Z,40.28
2023-05-12T12:55:10.061Z,40.83
2023-05-12T12:57:37.073Z,41.44
2023-05-12T13:00:05.655Z,42.64
2023-05-12T13:02:37.928Z,41.12
2023-05-12T13:05:07.203Z,41.04
2023-05-12T13:07:34.569Z,40.46
2023-05-12T13:10:01.732Z,41.28
2023-05-12T13:12:33.136Z,40.87
2023-05-12T13:15:00.504Z,41.86
2023-05-12T13:17:27.696Z,41.15
2023-05-12T13:19:54.962Z,41.15
2023-05-12T13:22:22.280Z,42.04
2023-05-12T13:24:49.241Z,41.82
2023-05-12T13:27:16.378Z,41.30
2023-05-12T13:29:47.214Z,41.93
2023-05-12T13:32:15.378Z,41.76
2023-05-12T13:34:42.612Z,42.55
2023-05-12T13:37:09.620Z,43.30
2023-05-12T13:39:36.785Z,42.84
2023-05-12T13:42:04.585Z,42.93
2023-05-12T13:44:31.658Z,42.94
2023-05-12T13:46:58.604Z,43.07
2023-05-12T13:49:25.799Z,41.90
2023-05-12T13:51:52.852Z,41.69
2023-05-12T13:54:19.938Z,41.50
2023-05-12T13:56:47.304Z,41.49
2023-05-12T13:59:14.275Z,41.07
2023-05-12T14:01:41.318Z,41.50
2023-05-12T14:04:08.529Z,42.79
2023-05-12T14:06:35.556Z,42.87
2023-05-12T14:09:04.069Z,42.34
2023-05-12T14:11:31.214Z,42.35
2023-05-12T14:14:00.768Z,42.95
2023-05-12T14:16:27.818Z,42.13
2023-05-12T14:18:55.582Z,41.82
2023-05-12T14:21:22.818Z,42.04
2023-05-12T14:23:51.191Z,42.01
2023-05-12T14:26:19.465Z,42.86
2023-05-12T14:28:46.819Z,42.93
2023-05-12T14:31:14.021Z,43.75
2023-05-12T14:33:41.184Z,43.07
2023-05-12T14:36:08.999Z,43.00
2023-05-12T14:38:51.521Z,42.77
2023-05-12T14:41:27.753Z,41.98
2023-05-12T14:43:54.747Z,41.43
2023-05-12T14:46:21.902Z,41.58
2023-05-12T14:48:49.004Z,41.04
2023-05-12T14:51:15.963Z,40.82
2023-05-12T14:53:42.947Z,41.16
2023-05-12T14:56:10.031Z,41.95
2023-05-12T14:58:37.083Z,42.35
2023-05-12T15:01:04.284Z,43.48
2023-05-12T15:03:33.637Z,43.42
2023-05-12T15:08:30.443Z,44.02
2023-05-12T15:10:57.446Z,43.55
2023-05-12T15:13:24.471Z,44.40
2023-05-12T15:15:52.946Z,44.30
2023-05-12T15:18:22.319Z,45.10
2023-05-12T15:20:49.366Z,44.83
2023-05-12T15:23:16.320Z,44.27
2023-05-12T15:25:43.303Z,44.21
2023-05-12T15:28:10.309Z,44.43
2023-05-12T15:30:37.275Z,44.41
2023-05-12T15:33:04.508Z,44.46
2023-05-12T15:35:32.673Z,43.83
2023-05-12T15:37:59.860Z,43.84
2023-05-12T15:40:26.867Z,43.92
2023-05-12T15:42:53.940Z,44.39
2023-05-12T15:45:21.223Z,45.67
2023-05-12T15:47:48.397Z,45.07
2023-05-12T15:50:19.754Z,45.15
2023-05-12T15:52:47.437Z,44.68
2023-05-12T15:55:15.158Z,44.82
2023-05-12T15:57:42.519Z,44.86
2023-05-12T16:00:09.930Z,45.17
2023-05-12T16:02:40.708Z,45.39
2023-05-12T16:05:09.341Z,45.57
2023-05-12T16:07:36.343Z,45.83
2023-05-12T16:10:03.776Z,45.85
2023-05-12T16:12:31.551Z,45.60
2023-05-12T16:14:58.556Z,45.92
2023-05-12T16:17:25.749Z,46.27
2023-05-12T16:19:53.675Z,46.95
2023-05-12T16:22:20.690Z,46.53
2023-05-12T16:24:48.142Z,46.50
2023-05-12T16:27:15.329Z,47.24
2023-05-12T16:29:45.863Z,47.31
2023-05-12T16:32:13.017Z,46.73
2023-05-12T16:34:40.046Z,47.17
2023-05-12T16:37:07.104Z,47.78
2023-05-12T16:39:35.886Z,47.38
2023-05-12T16:42:03.475Z,48.53
2023-05-12T16:44:30.407Z,48.45
2023-05-12T16:46:57.367Z,48.79
2023-05-12T16:49:24.363Z,48.53
2023-05-12T16:51:51.542Z,48.56
2023-05-12T16:54:18.702Z,49.14
2023-05-12T16:56:45.972Z,48.77
2023-05-12T16:59:12.919Z,49.40
2023-05-12T17:01:39.939Z,49.30
2023-05-12T17:04:07.966Z,49.76
2023-05-12T17:06:35.077Z,49.92
2023-05-12T17:09:02.164Z,50.82
2023-05-12T17:11:29.278Z,51.11
2023-05-12T17:13:56.215Z,51.38
2023-05-12T17:16:23.180Z,51.29
2023-05-12T17:21:20.313Z,51.77
2023-05-12T17:23:47.416Z,51.16
2023-05-12T17:26:14.795Z,50.78
2023-05-12T17:28:42.408Z,51.61
2023-05-12T17:31:09.409Z,51.31
2023-05-12T17:33:36.324Z,51.46
2023-05-12T17:36:12.530Z,52.85
2023-05-12T17:38:41.066Z,52.91
2023-05-12T17:41:08.217Z,52.66
2023-05-12T17:43:35.190Z,52.62
2023-05-12T17:46:03.716Z,52.74
2023-05-12T17:48:33.621Z,52.17
2023-05-12T17:51:03.135Z,51.84
2023-05-12T17:53:31.254Z,52.49
2023-05-12T17:55:58.904Z,52.08
2023-05-12T17:58:26.448Z,52.59
2023-05-12T18:00:53.834Z,52.59
2023-05-12T18:03:24.035Z,52.80
2023-05-12T18:05:53.208Z,52.51
2023-05-12T18:08:20.776Z,52.13
2023-05-12T18:10:47.854Z,52.14
2023-05-12T18:13:15.587Z,51.79
2023-05-12T18:15:42.943Z,52.27
2023-05-12T18:18:10.451Z,51.98
2023-05-12T18:20:37.526Z,51.65
2023-05-12T18:23:04.715Z,52.10
2023-05-12T18:25:31.885Z,52.15
2023-05-12T18:27:58.832Z,52.77
2023-05-12T18:30:25.770Z,53.34
2023-05-12T18:32:56.536Z,53.51
2023-05-12T18:35:24.804Z,54.16
2023-05-12T18:37:51.832Z,53.88
2023-05-12T18:40:18.759Z,53.61
2023-05-12T18:42:45.669Z,53.54
2023-05-12T18:45:12.728Z,53.77
2023-05-12T18:47:39.967Z,54.26
2023-05-12T18:50:07.972Z,53.61
2023-05-12T18:52:35.626Z,54.14
2023-05-12T18:55:03.050Z,53.59
2023-05-12T18:57:33.829Z,53.78
2023-05-12T19:00:01.313Z,53.66
2023-05-12T19:02:35.613Z,53.94
2023-05-12T19:05:02.922Z,53.87
2023-05-12T19:07:32.500Z,53.55
2023-05-12T19:09:59.814Z,54.46
2023-05-12T19:12:26.882Z,54.50
2023-05-12T19:14:54.284Z,54.22
2023-05-12T19:17:22.106Z,54.87
2023-05-12T19:19:50.631Z,56.64
2023-05-12T19:22:17.914Z,56.12
2023-05-12T19:24:45.196Z,55.43
2023-05-12T19:27:12.317Z,55.21
2023-05-12T19:29:39.197Z,55.61
2023-05-12T19:32:06.770Z,55.47
2023-05-12T19:34:33.883Z,54.92
2023-05-12T19:37:01.233Z,56.15
2023-05-12T19:39:29.337Z,55.49
2023-05-12T19:41:56.412Z,55.39
2023-05-12T19:44:23.298Z,55.84
2023-05-12T19:46:50.968Z,55.11
2023-05-12T19:49:17.960Z,55.66
2023-05-12T19:51:44.919Z,56.29
2023-05-12T19:54:11.845Z,55.77
2023-05-12T19:56:38.971Z,56.50
2023-05-12T19:59:05.963Z,55.79
2023-05-12T20:01:32.959Z,56.84
2023-05-12T20:03:59.967Z,55.91
2023-05-12T20:06:26.885Z,56.92
2023-05-12T20:08:53.810Z,57.76
2023-05-12T20:11:20.792Z,57.53
2023-05-12T20:13:47.803Z,57.90
2023-05-12T20:16:14.769Z,58.56
2023-05-12T20:18:41.832Z,58.88
2023-05-12T20:21:08.830Z,58.05
2023-05-12T20:23:36.347Z,58.20
2023-05-12T20:26:04.195Z,57.55
2023-05-12T20:28:31.352Z,57.40
2023-05-12T20:30:58.291Z,57.37
2023-05-12T20:33:25.352Z,57.02
2023-05-12T20:35:52.366Z,57.62
2023-05-12T20:38:19.471Z,56.92
2023-05-12T20:40:46.614Z,57.64
2023-05-12T20:43:14.565Z,57.47
2023-05-12T20:45:41.735Z,57.31
2023-05-12T20:48:09.289Z,57.35
2023-05-12T20:50:36.384Z,57.22
2023-05-12T20:53:04.606Z,57.07
2023-05-12T20:55:34.715Z,57.52
2023-05-12T20:58:01.656Z,57.18
2023-05-12T21:00:28.587Z,57.48
2023-05-12T21:02:56.157Z,57.55
2023-05-12T21:05:23.248Z,56.83
2023-05-12T21:07:50.308Z,56.93
2023-05-12T21:10:17.544Z,56.96
2023-05-12T21:12:44.630Z,57.09
2023-05-12T21:15:11.620Z,56.59
2023-05-12T21:17:39.555Z,57.04
2023-05-12T21:20:08.991Z,56.27
2023-05-12T21:22:37.369Z,56.61
2023-05-12T21:25:05.194Z,56.73
2023-05-12T21:27:32.188Z,58.28
2023-05-12T21:29:59.209Z,58.84
2023-05-12T21:32:26.121Z,59.04
2023-05-12T21:34:53.703Z,59.94
2023-05-12T21:37:20.676Z,60.86
2023-05-12T21:39:47.625Z,61.59
2023-05-12T21:42:14.603Z,61.13
2023-05-12T21:44:41.563Z,61.96
2023-05-12T21:47:08.663Z,62.37
2023-05-12T21:49:35.716Z,61.96
2023-05-12T21:52:02.737Z,61.94
2023-05-12T21:54:33.458Z,62.82
2023-05-12T21:57:01.084Z,62.75
2023-05-12T21:59:29.166Z,63.23
2023-05-12T22:01:56.486Z,63.38
2023-05-12T22:04:23.715Z,62.55
2023-05-12T22:06:51.055Z,62.53
2023-05-12T22:09:18.460Z,62.39
2023-05-12T22:11:45.348Z,63.06
2023-05-12T22:14:12.231Z,63.16
2023-05-12T22:16:42.228Z,63.23
2023-05-12T22:19:10.259Z,63.84
2023-05-12T22:21:37.409Z,63.66
2023-05-12T22:24:04.576Z,63.89
2023-05-12T22:26:31.586Z,63.70
2023-05-12T22:28:58.524Z,63.64
2023-05-12T22:31:25.685Z,64.21
2023-05-12T22:33:52.711Z,64.35
2023-05-12T22:36:19.687Z,64.88
2023-05-12T22:38:46.607Z,64.77
2023-05-12T22:41:13.538Z,64.71
2023-05-12T22:43:40.425Z,65.15
2023-05-12T22:46:09.594Z,65.53
2023-05-12T22:48:39.456Z,65.65
2023-05-12T22:51:07.035Z,65.26
2023-05-12T22:53:41.293Z,65.30
2023-05-12T22:56:08.617Z,64.52
2023-05-12T22:58:35.630Z,64.80
2023-05-12T23:01:02.692Z,64.85
2023-05-12T23:03:29.704Z,65.52
2023-05-12T23:05:56.575Z,65.64
2023-05-12T23:08:23.524Z,65.26
2023-05-12T23:10:50.616Z,65.12
2023-05-12T23:13:17.554Z,65.36
2023-05-12T23:15:44.510Z,65.46
2023-05-12T23:18:11.452Z,66.15
2023-05-12T23:20:38.469Z,66.33
2023-05-12T23:23:05.402Z,67.08
2023-05-12T23:25:32.692Z,67.11
2023-05-12T23:27:59.614Z,66.90
2023-05-12T23:30:26.667Z,67.07
2023-05-12T23:32:53.697Z,66.50
2023-05-12T23:35:20.730Z,66.37
2023-05-12T23:37:47.819Z,66.06
2023-05-12T23:40:14.723Z,66.17
2023-05-12T23:42:41.799Z,66.73
2023-05-12T23:45:09.146Z,67.75
2023-05-12T23:47:36.232Z,67.92
2023-05-12T23:50:03.562Z,68.37
2023-05-12T23:52:31.727Z,70.16
2023-05-12T23:54:58.671Z,72.04
2023-05-12T23:57:25.664Z,72.56
2023-05-12T23:59:52.595Z,72.20
